sensor_id;sensor_type;location;lat;lon;timestamp;pressure;altitude;pressure_sealevel;temperature;humidity
54588;BME280;40484;50.198;19.576;2023-05-14T00:03:44;102160.20;;;14.05;40.80
54588;BME280;40484;50.198;19.576;2023-05-14T00:08:45;102157.69;;;14.03;41.01
54588;BME280;40484;50.198;19.576;2023-05-14T00:13:47;102146.85;;;14.11;41.07
54588;BME280;40484;50.198;19.576;2023-05-14T00:18:48;102154.86;;;14.19;41.02
54588;BME280;40484;50.198;19.576;2023-05-14T00:23:50;102149.23;;;14.22;41.11
54588;BME280;40484;50.198;19.576;2023-05-14T00:29:16;102144.83;;;14.18;41.03
54588;BME280;40484;50.198;19.576;2023-05-14T00:34:17;102152.09;;;14.15;41.12
54588;BME280;40484;50.198;19.576;2023-05-14T00:39:19;102153.75;;;14.11;41.26
54588;BME280;40484;50.198;19.576;2023-05-14T00:44:20;102158.09;;;14.02;41.51
54588;BME280;40484;50.198;19.576;2023-05-14T00:49:22;102148.45;;;13.99;41.44
54588;BME280;40484;50.198;19.576;2023-05-14T00:54:24;102151.68;;;13.83;41.84
54588;BME280;40484;50.198;19.576;2023-05-14T00:59:25;102151.02;;;13.80;42.17
54588;BME280;40484;50.198;19.576;2023-05-14T01:04:27;102151.25;;;13.83;42.08
54588;BME280;40484;50.198;19.576;2023-05-14T01:14:39;102160.09;;;13.89;42.09
54588;BME280;40484;50.198;19.576;2023-05-14T01:19:41;102165.91;;;13.85;42.16
54588;BME280;40484;50.198;19.576;2023-05-14T01:24:42;102159.56;;;13.78;42.37
54588;BME280;40484;50.198;19.576;2023-05-14T01:29:48;102155.71;;;13.92;42.27
54588;BME280;40484;50.198;19.576;2023-05-14T01:34:47;102155.59;;;14.00;42.07
54588;BME280;40484;50.198;19.576;2023-05-14T01:39:50;102155.31;;;13.95;42.01
54588;BME280;40484;50.198;19.576;2023-05-14T01:44:53;102150.73;;;13.96;42.05
54588;BME280;40484;50.198;19.576;2023-05-14T01:49:56;102143.82;;;13.95;41.92
54588;BME280;40484;50.198;19.576;2023-05-14T01:54:57;102143.40;;;13.91;41.92
54588;BME280;40484;50.198;19.576;2023-05-14T02:00:00;102142.41;;;13.74;42.17
54588;BME280;40484;50.198;19.576;2023-05-14T02:05:28;102138.07;;;13.80;42.13
54588;BME280;40484;50.198;19.576;2023-05-14T02:10:29;102125.95;;;13.79;42.02
54588;BME280;40484;50.198;19.576;2023-05-14T02:15:31;102123.23;;;13.80;42.05
54588;BME280;40484;50.198;19.576;2023-05-14T02:20:32;102119.21;;;13.73;42.14
54588;BME280;40484;50.198;19.576;2023-05-14T02:25:34;102126.30;;;13.71;42.13
54588;BME280;40484;50.198;19.576;2023-05-14T02:30:35;102117.63;;;13.59;42.06
54588;BME280;40484;50.198;19.576;2023-05-14T02:35:37;102116.33;;;13.53;42.23
54588;BME280;40484;50.198;19.576;2023-05-14T02:40:38;102121.05;;;13.43;42.29
54588;BME280;40484;50.198;19.576;2023-05-14T02:45:40;102108.32;;;13.43;42.43
54588;BME280;40484;50.198;19.576;2023-05-14T02:50:41;102109.36;;;13.43;42.56
54588;BME280;40484;50.198;19.576;2023-05-14T02:55:43;102105.01;;;13.44;42.69
54588;BME280;40484;50.198;19.576;2023-05-14T03:00:44;102102.95;;;13.28;43.24
54588;BME280;40484;50.198;19.576;2023-05-14T03:05:46;102102.57;;;13.31;43.15
54588;BME280;40484;50.198;19.576;2023-05-14T03:10:48;102095.32;;;13.35;43.04
54588;BME280;40484;50.198;19.576;2023-05-14T03:15:49;102085.79;;;13.45;42.96
54588;BME280;40484;50.198;19.576;2023-05-14T03:20:52;102085.19;;;13.47;43.09
54588;BME280;40484;50.198;19.576;2023-05-14T03:25:54;102066.17;;;13.49;43.09
54588;BME280;40484;50.198;19.576;2023-05-14T03:30:56;102064.30;;;13.47;43.23
54588;BME280;40484;50.198;19.576;2023-05-14T03:35:58;102057.82;;;13.48;43.34
54588;BME280;40484;50.198;19.576;2023-05-14T03:40:59;102075.13;;;13.47;43.48
54588;BME280;40484;50.198;19.576;2023-05-14T03:46:01;102072.30;;;13.57;43.61
54588;BME280;40484;50.198;19.576;2023-05-14T03:51:03;102083.58;;;13.57;44.26
54588;BME280;40484;50.198;19.576;2023-05-14T03:56:29;102074.61;;;13.89;44.50
54588;BME280;40484;50.198;19.576;2023-05-14T04:01:30;102072.48;;;14.19;44.39
54588;BME280;40484;50.198;19.576;2023-05-14T04:06:32;102067.32;;;14.38;44.31
54588;BME280;40484;50.198;19.576;2023-05-14T04:11:34;102064.80;;;14.35;44.44
54588;BME280;40484;50.198;19.576;2023-05-14T04:16:35;102067.99;;;14.47;44.43
54588;BME280;40484;50.198;19.576;2023-05-14T04:21:37;102069.52;;;14.56;44.77
54588;BME280;40484;50.198;19.576;2023-05-14T04:26:38;102065.40;;;14.74;45.07
54588;BME280;40484;50.198;19.576;2023-05-14T04:31:40;102062.72;;;15.09;44.83
54588;BME280;40484;50.198;19.576;2023-05-14T04:36:42;102063.98;;;15.32;44.61
54588;BME280;40484;50.198;19.576;2023-05-14T04:41:44;102064.41;;;15.46;44.45
54588;BME280;40484;50.198;19.576;2023-05-14T04:46:45;102065.01;;;15.60;44.42
54588;BME280;40484;50.198;19.576;2023-05-14T04:51:47;102070.47;;;15.72;44.22
54588;BME280;40484;50.198;19.576;2023-05-14T04:56:49;102072.97;;;15.85;43.99
54588;BME280;40484;50.198;19.576;2023-05-14T05:01:51;102073.35;;;16.03;43.84
54588;BME280;40484;50.198;19.576;2023-05-14T05:06:52;102050.45;;;16.13;44.03
54588;BME280;40484;50.198;19.576;2023-05-14T05:11:54;102056.96;;;16.12;44.06
54588;BME280;40484;50.198;19.576;2023-05-14T05:16:55;102058.61;;;16.21;44.08
54588;BME280;40484;50.198;19.576;2023-05-14T05:21:57;102051.82;;;16.40;43.59
54588;BME280;40484;50.198;19.576;2023-05-14T05:26:58;102051.35;;;15.94;44.39
54588;BME280;40484;50.198;19.576;2023-05-14T05:32:00;102045.32;;;15.75;44.64
54588;BME280;40484;50.198;19.576;2023-05-14T05:37:01;102030.74;;;16.17;44.16
54588;BME280;40484;50.198;19.576;2023-05-14T05:42:04;102025.89;;;16.19;44.19
54588;BME280;40484;50.198;19.576;2023-05-14T05:47:30;102027.11;;;16.76;43.34
54588;BME280;40484;50.198;19.576;2023-05-14T05:52:31;102034.10;;;16.56;42.99
54588;BME280;40484;50.198;19.576;2023-05-14T05:57:33;102041.25;;;16.53;43.44
54588;BME280;40484;50.198;19.576;2023-05-14T06:02:35;102035.84;;;16.88;42.97
54588;BME280;40484;50.198;19.576;2023-05-14T06:07:36;102039.77;;;16.95;42.56
54588;BME280;40484;50.198;19.576;2023-05-14T06:12:38;102044.02;;;16.48;42.95
54588;BME280;40484;50.198;19.576;2023-05-14T06:17:40;102039.73;;;16.64;43.34
54588;BME280;40484;50.198;19.576;2023-05-14T06:22:42;102022.44;;;16.80;42.83
54588;BME280;40484;50.198;19.576;2023-05-14T06:27:44;102012.24;;;17.23;42.48
54588;BME280;40484;50.198;19.576;2023-05-14T06:32:45;102007.10;;;17.35;42.37
54588;BME280;40484;50.198;19.576;2023-05-14T06:37:47;102009.19;;;17.38;42.28
54588;BME280;40484;50.198;19.576;2023-05-14T06:42:48;102020.13;;;17.34;42.13
54588;BME280;40484;50.198;19.576;2023-05-14T06:47:50;102013.29;;;17.46;41.70
54588;BME280;40484;50.198;19.576;2023-05-14T06:52:51;102017.84;;;17.54;40.75
54588;BME280;40484;50.198;19.576;2023-05-14T06:57:53;102013.76;;;17.61;40.46
54588;BME280;40484;50.198;19.576;2023-05-14T07:05:52;102013.02;;;18.12;39.99
54588;BME280;40484;50.198;19.576;2023-05-14T07:10:54;102016.46;;;18.24;39.77
54588;BME280;40484;50.198;19.576;2023-05-14T07:15:57;102018.72;;;18.26;39.59
54588;BME280;40484;50.198;19.576;2023-05-14T07:20:58;102026.99;;;18.04;39.65
54588;BME280;40484;50.198;19.576;2023-05-14T07:26:00;102039.26;;;18.16;40.10
54588;BME280;40484;50.198;19.576;2023-05-14T07:31:01;102043.89;;;18.33;39.54
54588;BME280;40484;50.198;19.576;2023-05-14T07:36:08;102053.42;;;18.46;39.92
54588;BME280;40484;50.198;19.576;2023-05-14T07:41:09;102058.16;;;18.69;39.95
54588;BME280;40484;50.198;19.576;2023-05-14T07:46:12;102061.94;;;18.69;39.93
54588;BME280;40484;50.198;19.576;2023-05-14T07:51:13;102054.34;;;18.54;40.56
54588;BME280;40484;50.198;19.576;2023-05-14T07:56:15;102041.06;;;18.56;40.09
54588;BME280;40484;50.198;19.576;2023-05-14T08:01:16;102027.43;;;18.68;39.70
54588;BME280;40484;50.198;19.576;2023-05-14T08:06:18;102026.46;;;18.78;39.35
54588;BME280;40484;50.198;19.576;2023-05-14T08:11:21;102020.16;;;19.03;39.19
54588;BME280;40484;50.198;19.576;2023-05-14T08:16:23;102015.06;;;19.19;37.92
54588;BME280;40484;50.198;19.576;2023-05-14T08:21:26;102012.87;;;19.23;38.58
54588;BME280;40484;50.198;19.576;2023-05-14T08:26:28;101996.66;;;19.46;37.60
54588;BME280;40484;50.198;19.576;2023-05-14T08:31:29;101987.66;;;19.67;37.20
54588;BME280;40484;50.198;19.576;2023-05-14T08:36:31;101983.02;;;19.88;36.98
54588;BME280;40484;50.198;19.576;2023-05-14T08:42:01;101977.70;;;19.57;36.88
54588;BME280;40484;50.198;19.576;2023-05-14T08:47:05;101986.76;;;19.92;36.79
54588;BME280;40484;50.198;19.576;2023-05-14T08:52:11;101979.93;;;20.05;37.09
54588;BME280;40484;50.198;19.576;2023-05-14T08:57:13;101972.81;;;20.02;35.53
54588;BME280;40484;50.198;19.576;2023-05-14T09:02:15;101972.73;;;20.36;35.50
54588;BME280;40484;50.198;19.576;2023-05-14T09:07:17;101973.62;;;20.53;36.05
54588;BME280;40484;50.198;19.576;2023-05-14T09:12:19;101962.68;;;20.50;34.98
54588;BME280;40484;50.198;19.576;2023-05-14T09:17:23;101957.42;;;20.69;34.97
54588;BME280;40484;50.198;19.576;2023-05-14T09:22:25;101959.91;;;20.63;34.98
54588;BME280;40484;50.198;19.576;2023-05-14T09:27:29;101955.29;;;21.12;34.75
54588;BME280;40484;50.198;19.576;2023-05-14T09:32:39;101946.25;;;21.26;33.33
54588;BME280;40484;50.198;19.576;2023-05-14T09:37:43;101948.45;;;21.15;34.79
54588;BME280;40484;50.198;19.576;2023-05-14T09:42:45;101948.56;;;21.02;32.64
54588;BME280;40484;50.198;19.576;2023-05-14T09:47:48;101953.75;;;21.06;33.68
54588;BME280;40484;50.198;19.576;2023-05-14T09:52:49;101935.37;;;21.54;32.36
54588;BME280;40484;50.198;19.576;2023-05-14T09:57:51;101933.25;;;21.69;34.41
54588;BME280;40484;50.198;19.576;2023-05-14T10:02:53;101923.80;;;21.95;35.19
54588;BME280;40484;50.198;19.576;2023-05-14T10:08:26;101918.09;;;22.17;33.98
54588;BME280;40484;50.198;19.576;2023-05-14T10:13:32;101912.55;;;22.38;34.29
54588;BME280;40484;50.198;19.576;2023-05-14T10:18:36;101898.63;;;22.43;33.48
54588;BME280;40484;50.198;19.576;2023-05-14T10:23:37;101889.77;;;22.61;33.17
54588;BME280;40484;50.198;19.576;2023-05-14T10:28:39;101902.13;;;22.46;32.82
54588;BME280;40484;50.198;19.576;2023-05-14T10:33:48;101879.42;;;22.67;32.58
54588;BME280;40484;50.198;19.576;2023-05-14T10:38:53;101875.59;;;22.73;33.25
54588;BME280;40484;50.198;19.576;2023-05-14T10:43:55;101864.93;;;23.01;32.82
54588;BME280;40484;50.198;19.576;2023-05-14T10:48:58;101861.51;;;23.07;31.72
54588;BME280;40484;50.198;19.576;2023-05-14T10:53:59;101852.30;;;22.73;33.26
54588;BME280;40484;50.198;19.576;2023-05-14T10:59:01;101837.86;;;22.99;33.76
54588;BME280;40484;50.198;19.576;2023-05-14T11:04:03;101831.48;;;23.05;33.81
54588;BME280;40484;50.198;19.576;2023-05-14T11:09:05;101839.38;;;22.91;33.52
54588;BME280;40484;50.198;19.576;2023-05-14T11:14:08;101834.88;;;23.34;33.54
54588;BME280;40484;50.198;19.576;2023-05-14T11:19:10;101829.13;;;23.57;32.71
54588;BME280;40484;50.198;19.576;2023-05-14T11:24:11;101822.49;;;23.81;32.84
54588;BME280;40484;50.198;19.576;2023-05-14T11:29:13;101822.53;;;23.68;32.66
54588;BME280;40484;50.198;19.576;2023-05-14T11:34:42;101818.88;;;23.70;32.60
54588;BME280;40484;50.198;19.576;2023-05-14T11:39:49;101818.64;;;23.82;33.09
54588;BME280;40484;50.198;19.576;2023-05-14T11:44:52;101815.20;;;23.38;33.13
54588;BME280;40484;50.198;19.576;2023-05-14T11:49:58;101820.33;;;23.48;33.16
54588;BME280;40484;50.198;19.576;2023-05-14T11:55:01;101815.52;;;23.46;33.08
54588;BME280;40484;50.198;19.576;2023-05-14T12:00:03;101820.49;;;23.78;33.32
54588;BME280;40484;50.198;19.576;2023-05-14T12:05:07;101792.46;;;23.84;32.42
54588;BME280;40484;50.198;19.576;2023-05-14T12:10:10;101776.32;;;24.00;32.27
54588;BME280;40484;50.198;19.576;2023-05-14T12:15:13;101776.49;;;23.90;31.89
54588;BME280;40484;50.198;19.576;2023-05-14T12:20:15;101775.31;;;23.88;32.57
54588;BME280;40484;50.198;19.576;2023-05-14T12:25:17;101772.02;;;24.06;32.66
54588;BME280;40484;50.198;19.576;2023-05-14T12:30:19;101753.30;;;24.12;32.79
54588;BME280;40484;50.198;19.576;2023-05-14T12:35:21;101738.19;;;24.44;32.56
54588;BME280;40484;50.198;19.576;2023-05-14T12:40:22;101736.29;;;24.32;32.47
54588;BME280;40484;50.198;19.576;2023-05-14T12:45:24;101717.50;;;24.83;31.60
54588;BME280;40484;50.198;19.576;2023-05-14T12:50:25;101724.63;;;25.04;31.75
54588;BME280;40484;50.198;19.576;2023-05-14T12:55:27;101717.41;;;24.90;31.18
54588;BME280;40484;50.198;19.576;2023-05-14T13:00:29;101718.60;;;24.33;31.50
54588;BME280;40484;50.198;19.576;2023-05-14T13:05:56;101705.29;;;24.27;31.98
54588;BME280;40484;50.198;19.576;2023-05-14T13:10:58;101707.44;;;24.26;32.13
54588;BME280;40484;50.198;19.576;2023-05-14T13:15:59;101697.12;;;24.34;32.88
54588;BME280;40484;50.198;19.576;2023-05-14T13:21:02;101698.14;;;24.11;31.16
54588;BME280;40484;50.198;19.576;2023-05-14T13:26:05;101696.40;;;24.36;31.49
54588;BME280;40484;50.198;19.576;2023-05-14T13:31:12;101687.95;;;24.30;30.91
54588;BME280;40484;50.198;19.576;2023-05-14T13:36:14;101683.04;;;24.41;31.61
54588;BME280;40484;50.198;19.576;2023-05-14T13:41:16;101658.85;;;24.20;31.84
54588;BME280;40484;50.198;19.576;2023-05-14T13:46:18;101661.16;;;24.21;31.74
54588;BME280;40484;50.198;19.576;2023-05-14T13:51:21;101662.19;;;24.36;32.17
54588;BME280;40484;50.198;19.576;2023-05-14T13:56:22;101662.59;;;24.32;31.24
54588;BME280;40484;50.198;19.576;2023-05-14T14:01:23;101641.48;;;23.85;30.78
54588;BME280;40484;50.198;19.576;2023-05-14T14:06:25;101621.88;;;24.06;31.10
54588;BME280;40484;50.198;19.576;2023-05-14T14:11:30;101611.34;;;24.19;30.71
54588;BME280;40484;50.198;19.576;2023-05-14T14:16:32;101614.93;;;24.29;30.92
54588;BME280;40484;50.198;19.576;2023-05-14T14:21:34;101599.43;;;24.09;29.92
54588;BME280;40484;50.198;19.576;2023-05-14T14:26:35;101604.34;;;24.10;30.31
54588;BME280;40484;50.198;19.576;2023-05-14T14:31:40;101603.29;;;23.99;30.75
54588;BME280;40484;50.198;19.576;2023-05-14T14:36:43;101597.52;;;23.75;30.60
54588;BME280;40484;50.198;19.576;2023-05-14T14:42:09;101590.36;;;24.08;30.88
54588;BME280;40484;50.198;19.576;2023-05-14T14:47:10;101582.55;;;23.92;30.84
54588;BME280;40484;50.198;19.576;2023-05-14T14:52:12;101578.23;;;23.80;30.67
54588;BME280;40484;50.198;19.576;2023-05-14T14:57:13;101582.91;;;23.59;30.88
54588;BME280;40484;50.198;19.576;2023-05-14T15:02:15;101553.33;;;23.66;30.48
54588;BME280;40484;50.198;19.576;2023-05-14T15:07:16;101537.30;;;23.64;30.44
54588;BME280;40484;50.198;19.576;2023-05-14T15:12:20;101531.27;;;23.41;30.25
54588;BME280;40484;50.198;19.576;2023-05-14T15:17:21;101543.48;;;23.47;30.35
54588;BME280;40484;50.198;19.576;2023-05-14T15:22:23;101546.22;;;23.23;31.13
54588;BME280;40484;50.198;19.576;2023-05-14T15:27:25;101549.39;;;23.38;31.18
54588;BME280;40484;50.198;19.576;2023-05-14T15:32:26;101548.95;;;23.49;31.39
54588;BME280;40484;50.198;19.576;2023-05-14T15:37:34;101538.57;;;23.49;31.47
54588;BME280;40484;50.198;19.576;2023-05-14T15:42:39;101540.39;;;23.51;31.83
54588;BME280;40484;50.198;19.576;2023-05-14T15:47:44;101527.85;;;23.51;31.60
54588;BME280;40484;50.198;19.576;2023-05-14T15:52:46;101531.13;;;23.49;31.96
54588;BME280;40484;50.198;19.576;2023-05-14T15:57:47;101533.13;;;23.52;31.93
54588;BME280;40484;50.198;19.576;2023-05-14T16:02:50;101511.19;;;23.34;31.95
54588;BME280;40484;50.198;19.576;2023-05-14T16:07:51;101505.51;;;23.33;32.10
54588;BME280;40484;50.198;19.576;2023-05-14T16:12:53;101493.65;;;23.17;32.13
54588;BME280;40484;50.198;19.576;2023-05-14T16:18:21;101485.64;;;23.36;32.17
54588;BME280;40484;50.198;19.576;2023-05-14T16:23:24;101482.33;;;23.34;32.50
54588;BME280;40484;50.198;19.576;2023-05-14T16:28:27;101492.93;;;23.24;32.71
54588;BME280;40484;50.198;19.576;2023-05-14T16:33:28;101491.85;;;23.20;32.82
54588;BME280;40484;50.198;19.576;2023-05-14T16:38:30;101489.66;;;23.11;33.21
54588;BME280;40484;50.198;19.576;2023-05-14T16:43:31;101482.68;;;23.00;33.28
54588;BME280;40484;50.198;19.576;2023-05-14T16:48:33;101478.30;;;22.99;33.10
54588;BME280;40484;50.198;19.576;2023-05-14T16:53:34;101479.09;;;23.06;33.09
54588;BME280;40484;50.198;19.576;2023-05-14T16:58:36;101479.34;;;23.09;33.12
54588;BME280;40484;50.198;19.576;2023-05-14T17:03:38;101476.47;;;23.12;33.13
54588;BME280;40484;50.198;19.576;2023-05-14T17:08:39;101472.41;;;23.08;33.11
54588;BME280;40484;50.198;19.576;2023-05-14T17:13:41;101467.81;;;23.11;33.00
54588;BME280;40484;50.198;19.576;2023-05-14T17:18:49;101472.06;;;23.06;33.30
54588;BME280;40484;50.198;19.576;2023-05-14T17:23:50;101459.80;;;23.10;33.48
54588;BME280;40484;50.198;19.576;2023-05-14T17:28:52;101456.71;;;23.03;33.59
54588;BME280;40484;50.198;19.576;2023-05-14T17:33:53;101452.71;;;22.81;34.58
54588;BME280;40484;50.198;19.576;2023-05-14T17:38:55;101434.25;;;22.66;35.28
54588;BME280;40484;50.198;19.576;2023-05-14T17:43:56;101446.94;;;22.62;36.09
54588;BME280;40484;50.198;19.576;2023-05-14T17:48:58;101443.24;;;22.53;37.06
54588;BME280;40484;50.198;19.576;2023-05-14T17:53:59;101426.05;;;22.43;37.98
54588;BME280;40484;50.198;19.576;2023-05-14T17:59:29;101424.14;;;22.17;38.86
54588;BME280;40484;50.198;19.576;2023-05-14T18:04:30;101427.76;;;22.16;38.65
54588;BME280;40484;50.198;19.576;2023-05-14T18:09:32;101434.10;;;22.16;39.46
54588;BME280;40484;50.198;19.576;2023-05-14T18:14:33;101438.41;;;22.03;40.24
54588;BME280;40484;50.198;19.576;2023-05-14T18:19:35;101462.59;;;21.90;41.28
54588;BME280;40484;50.198;19.576;2023-05-14T18:24:36;101454.46;;;21.75;42.46
54588;BME280;40484;50.198;19.576;2023-05-14T18:29:38;101463.88;;;21.48;43.32
54588;BME280;40484;50.198;19.576;2023-05-14T18:34:40;101457.81;;;21.40;43.58
54588;BME280;40484;50.198;19.576;2023-05-14T18:39:41;101479.82;;;21.14;44.65
54588;BME280;40484;50.198;19.576;2023-05-14T18:44:43;101473.42;;;20.96;45.00
54588;BME280;40484;50.198;19.576;2023-05-14T18:49:45;101478.80;;;21.00;45.27
